createdAt,value
2023-01-22T00:00:03.211Z,0.96
2023-01-22T00:01:03.551Z,0.96
2023-01-22T00:02:03.805Z,0.90
2023-01-22T00:03:04.037Z,0.86
2023-01-22T00:04:04.527Z,0.85
2023-01-22T00:05:04.682Z,0.85
2023-01-22T00:06:04.904Z,0.88
2023-01-22T00:07:05.246Z,0.86
2023-01-22T00:08:05.617Z,0.88
2023-01-22T00:09:05.853Z,0.89
2023-01-22T00:10:06.099Z,0.90
2023-01-22T00:11:06.433Z,0.96
2023-01-22T00:12:06.739Z,0.92
2023-01-22T00:13:07.001Z,0.90
2023-01-22T00:14:07.220Z,0.90
2023-01-22T00:15:07.513Z,0.88
2023-01-22T00:16:07.891Z,0.89
2023-01-22T00:17:07.986Z,0.94
2023-01-22T00:18:08.331Z,0.88
2023-01-22T00:19:08.631Z,0.90
2023-01-22T00:20:08.837Z,0.90
2023-01-22T00:21:09.151Z,0.89
2023-01-22T00:22:09.349Z,0.92
2023-01-22T00:23:09.610Z,0.96
2023-01-22T00:24:09.904Z,0.94
2023-01-22T00:25:10.211Z,0.90
2023-01-22T00:26:10.497Z,0.94
2023-01-22T00:27:10.818Z,0.94
2023-01-22T00:28:11.163Z,0.92
2023-01-22T00:29:11.365Z,0.94
2023-01-22T00:30:11.640Z,0.97
2023-01-22T00:31:12.032Z,0.90
2023-01-22T00:32:12.332Z,0.94
2023-01-22T00:33:12.481Z,0.89
2023-01-22T00:34:12.713Z,0.88
2023-01-22T00:35:13.235Z,0.88
2023-01-22T00:36:14.367Z,0.92
2023-01-22T00:37:13.731Z,0.90
2023-01-22T00:38:13.943Z,0.94
2023-01-22T00:39:14.277Z,0.88
2023-01-22T00:40:14.605Z,0.90
2023-01-22T00:41:14.801Z,0.90
2023-01-22T00:42:15.164Z,0.89
2023-01-22T00:43:15.433Z,0.90
2023-01-22T00:44:15.699Z,0.90
2023-01-22T00:45:16.073Z,0.86
2023-01-22T00:46:16.427Z,0.83
2023-01-22T00:47:16.615Z,0.82
2023-01-22T00:48:16.919Z,0.80
2023-01-22T00:49:17.179Z,0.85
2023-01-22T00:50:17.845Z,0.82
2023-01-22T00:51:17.852Z,0.85
2023-01-22T00:52:18.115Z,0.86
2023-01-22T00:53:18.362Z,0.85
2023-01-22T00:54:18.657Z,0.86
2023-01-22T00:55:18.911Z,0.83
2023-01-22T00:56:19.243Z,0.83
2023-01-22T00:57:19.726Z,0.82
2023-01-22T00:58:20.321Z,0.82
2023-01-22T00:59:20.097Z,0.83
2023-01-22T01:00:20.565Z,0.82
2023-01-22T01:01:20.616Z,0.83
2023-01-22T01:02:20.901Z,0.86
2023-01-22T01:03:21.198Z,0.83
2023-01-22T01:04:21.573Z,0.85
2023-01-22T01:05:21.865Z,0.86
2023-01-22T01:06:22.306Z,0.89
2023-01-22T01:07:22.577Z,0.89
2023-01-22T01:08:22.886Z,0.86
2023-01-22T01:09:23.111Z,0.89
2023-01-22T01:10:23.457Z,0.88
2023-01-22T01:11:23.719Z,0.94
2023-01-22T01:12:24.011Z,0.97
2023-01-22T01:13:24.408Z,1.00
2023-01-22T01:14:24.608Z,1.00
2023-01-22T01:15:24.990Z,0.96
2023-01-22T01:16:25.277Z,0.98
2023-01-22T01:17:25.493Z,1.00
2023-01-22T01:18:25.784Z,0.92
2023-01-22T01:19:26.064Z,0.97
2023-01-22T01:20:26.303Z,0.98
2023-01-22T01:21:26.644Z,0.96
2023-01-22T01:22:26.946Z,0.97
2023-01-22T01:23:27.225Z,0.97
2023-01-22T01:24:27.557Z,0.98
2023-01-22T01:25:27.870Z,1.00
2023-01-22T01:26:28.129Z,1.00
2023-01-22T01:27:28.295Z,0.96
2023-01-22T01:28:28.575Z,0.96
2023-01-22T01:29:28.956Z,0.96
2023-01-22T01:30:29.153Z,0.98
2023-01-22T01:31:29.516Z,0.97
2023-01-22T01:32:29.725Z,0.97
2023-01-22T01:33:30.071Z,0.97
2023-01-22T01:34:30.312Z,0.98
2023-01-22T01:35:30.621Z,0.98
2023-01-22T01:36:47.635Z,1.06
2023-01-22T01:37:32.209Z,1.01
2023-01-22T01:38:31.570Z,1.03
2023-01-22T01:39:31.891Z,1.03
2023-01-22T01:40:32.117Z,1.06
2023-01-22T01:41:32.438Z,1.06
2023-01-22T01:42:32.680Z,1.06
2023-01-22T01:43:33.054Z,1.03
2023-01-22T01:44:33.357Z,1.03
2023-01-22T01:45:33.674Z,1.04
2023-01-22T01:46:33.912Z,1.10
2023-01-22T01:47:34.203Z,1.07
2023-01-22T01:48:34.477Z,1.06
2023-01-22T01:49:34.839Z,1.04
2023-01-22T01:50:35.008Z,1.08
2023-01-22T01:51:35.321Z,1.14
2023-01-22T01:52:35.611Z,1.16
2023-01-22T01:53:36.045Z,1.14
2023-01-22T01:54:36.253Z,1.15
2023-01-22T01:55:36.635Z,1.10
2023-01-22T01:56:36.826Z,1.14
2023-01-22T01:57:37.178Z,1.16
2023-01-22T01:58:37.452Z,1.18
2023-01-22T01:59:37.754Z,1.19
2023-01-22T02:00:38.234Z,1.19
2023-01-22T02:01:38.490Z,1.24
2023-01-22T02:02:38.712Z,1.19
2023-01-22T02:03:39.167Z,1.21
2023-01-22T02:04:39.335Z,1.21
2023-01-22T02:05:39.669Z,1.21
2023-01-22T02:06:39.950Z,1.21
2023-01-22T02:07:40.344Z,1.19
2023-01-22T02:08:40.557Z,1.18
2023-01-22T02:09:40.920Z,1.21
2023-01-22T02:10:41.079Z,1.29
2023-01-22T02:11:41.466Z,1.26
2023-01-22T02:12:41.714Z,1.25
2023-01-22T02:13:42.038Z,1.24
2023-01-22T02:14:42.357Z,1.26
2023-01-22T02:15:42.727Z,1.28
2023-01-22T02:16:42.980Z,1.33
2023-01-22T02:17:43.181Z,1.33
2023-01-22T02:18:43.506Z,1.39
2023-01-22T02:19:43.874Z,1.34
2023-01-22T02:20:44.075Z,1.33
2023-01-22T02:21:44.396Z,1.34
2023-01-22T02:22:44.699Z,1.32
2023-01-22T02:23:45.025Z,1.32
2023-01-22T02:24:45.408Z,1.37
2023-01-22T02:25:45.605Z,1.34
2023-01-22T02:26:45.954Z,1.37
2023-01-22T02:27:46.392Z,1.37
2023-01-22T02:28:46.604Z,1.34
2023-01-22T02:29:46.894Z,1.36
2023-01-22T02:30:47.214Z,1.36
2023-01-22T02:31:47.596Z,1.32
2023-01-22T02:32:47.744Z,1.34
2023-01-22T02:33:48.098Z,1.37
2023-01-22T02:34:48.420Z,1.33
2023-01-22T02:35:48.727Z,1.39
2023-01-22T02:36:49.043Z,1.37
2023-01-22T02:37:49.336Z,1.42
2023-01-22T02:38:49.629Z,1.37
2023-01-22T02:39:49.958Z,1.40
2023-01-22T02:40:50.216Z,1.37
2023-01-22T02:41:50.541Z,1.40
2023-01-22T02:42:50.853Z,1.42
2023-01-22T02:43:51.187Z,1.44
2023-01-22T02:44:51.532Z,1.44
2023-01-22T02:45:51.776Z,1.39
2023-01-22T02:46:51.912Z,1.39
2023-01-22T02:47:52.227Z,1.39
2023-01-22T02:48:52.535Z,1.44
2023-01-22T02:49:52.897Z,1.43
2023-01-22T02:50:53.059Z,1.42
2023-01-22T02:51:53.398Z,1.44
2023-01-22T02:52:53.627Z,1.42
2023-01-22T02:53:53.986Z,1.44
2023-01-22T02:54:54.347Z,1.50
2023-01-22T02:55:54.583Z,1.46
2023-01-22T02:56:54.742Z,1.50
2023-01-22T02:57:55.079Z,1.57
2023-01-22T02:58:55.377Z,1.55
2023-01-22T02:59:55.711Z,1.58
2023-01-22T03:00:56.003Z,1.61
2023-01-22T03:01:56.241Z,1.61
2023-01-22T03:02:56.510Z,1.65
2023-01-22T03:03:56.824Z,1.60
2023-01-22T03:04:57.130Z,1.61
2023-01-22T03:05:57.466Z,1.60
2023-01-22T03:06:57.632Z,1.61
2023-01-22T03:07:57.980Z,1.65
2023-01-22T03:08:58.331Z,1.61
2023-01-22T03:09:58.668Z,1.61
2023-01-22T03:10:58.956Z,1.65
2023-01-22T03:11:59.305Z,1.65
2023-01-22T03:13:00.054Z,1.61
2023-01-22T03:13:59.983Z,1.61
2023-01-22T03:15:00.270Z,1.62
2023-01-22T03:16:00.630Z,1.62
2023-01-22T03:17:01.020Z,1.64
2023-01-22T03:18:01.215Z,1.62
2023-01-22T03:19:01.561Z,1.62
2023-01-22T03:20:01.907Z,1.68
2023-01-22T03:21:02.190Z,1.68
2023-01-22T03:22:02.534Z,1.64
2023-01-22T03:23:02.746Z,1.71
2023-01-22T03:24:03.051Z,1.69
2023-01-22T03:25:03.358Z,1.71
2023-01-22T03:26:03.692Z,1.69
2023-01-22T03:27:04.051Z,1.68
2023-01-22T03:28:04.366Z,1.68
2023-01-22T03:29:04.600Z,1.64
2023-01-22T03:30:04.950Z,1.69
2023-01-22T03:31:05.248Z,1.72
2023-01-22T03:32:05.651Z,1.69
2023-01-22T03:33:05.861Z,1.68
2023-01-22T03:34:06.216Z,1.68
2023-01-22T03:35:06.447Z,1.69
2023-01-22T03:36:06.847Z,1.71
2023-01-22T03:37:07.060Z,1.72
2023-01-22T03:38:07.401Z,1.72
2023-01-22T03:39:07.623Z,1.71
2023-01-22T03:40:07.862Z,1.61
2023-01-22T03:41:08.156Z,1.58
2023-01-22T03:42:08.431Z,1.60
2023-01-22T03:43:08.696Z,1.64
2023-01-22T03:44:09.081Z,1.65
2023-01-22T03:45:09.239Z,1.57
2023-01-22T03:46:09.617Z,1.60
2023-01-22T03:47:09.895Z,1.57
2023-01-22T03:48:10.127Z,1.58
2023-01-22T03:49:10.409Z,1.61
2023-01-22T03:50:10.740Z,1.60
2023-01-22T03:51:11.152Z,1.60
2023-01-22T03:52:12.341Z,1.65
2023-01-22T03:53:11.572Z,1.60
2023-01-22T03:54:11.783Z,1.62
2023-01-22T03:55:12.189Z,1.61
2023-01-22T03:56:12.532Z,1.61
2023-01-22T03:57:12.876Z,1.64
2023-01-22T03:58:13.071Z,1.64
2023-01-22T03:59:13.352Z,1.60
2023-01-22T04:00:13.565Z,1.58
2023-01-22T04:01:13.931Z,1.61
2023-01-22T04:02:15.158Z,1.61
2023-01-22T04:03:14.412Z,1.62
2023-01-22T04:04:14.778Z,1.58
2023-01-22T04:05:15.088Z,1.61
2023-01-22T04:06:15.309Z,1.60
2023-01-22T04:07:15.443Z,1.58
2023-01-22T04:08:15.730Z,1.62
2023-01-22T04:09:16.053Z,1.62
2023-01-22T04:10:16.566Z,1.64
2023-01-22T04:11:16.615Z,1.64
2023-01-22T04:12:17.070Z,1.60
2023-01-22T04:13:17.196Z,1.64
2023-01-22T04:14:17.519Z,1.61
2023-01-22T04:15:17.835Z,1.58
2023-01-22T04:16:18.201Z,1.64
2023-01-22T04:17:18.366Z,1.62
2023-01-22T04:18:18.779Z,1.62
2023-01-22T04:19:19.071Z,1.65
2023-01-22T04:20:19.623Z,1.68
2023-01-22T04:21:19.587Z,1.60
2023-01-22T04:22:19.884Z,1.62
2023-01-22T04:23:20.221Z,1.60
2023-01-22T04:24:20.540Z,1.60
2023-01-22T04:25:20.885Z,1.64
2023-01-22T04:26:21.202Z,1.65
2023-01-22T04:27:21.479Z,1.61
2023-01-22T04:28:21.834Z,1.68
2023-01-22T04:29:22.774Z,1.61
2023-01-22T04:30:22.444Z,1.64
2023-01-22T04:31:22.854Z,1.68
2023-01-22T04:32:23.027Z,1.72
2023-01-22T04:33:23.387Z,1.69
2023-01-22T04:34:23.570Z,1.71
2023-01-22T04:35:23.859Z,1.69
2023-01-22T04:36:24.193Z,1.72
2023-01-22T04:37:24.497Z,1.68
2023-01-22T04:38:24.822Z,1.65
2023-01-22T04:39:25.153Z,1.62
2023-01-22T04:40:25.485Z,1.68
2023-01-22T04:41:25.770Z,1.62
2023-01-22T04:42:26.192Z,1.65
2023-01-22T04:43:26.388Z,1.62
2023-01-22T04:44:26.734Z,1.65
2023-01-22T04:45:26.967Z,1.69
2023-01-22T04:46:27.359Z,1.64
2023-01-22T04:47:27.659Z,1.64
2023-01-22T04:48:27.910Z,1.69
2023-01-22T04:49:28.077Z,1.69
2023-01-22T04:50:28.405Z,1.73
2023-01-22T04:51:28.821Z,1.73
2023-01-22T04:52:29.017Z,1.71
2023-01-22T04:53:29.297Z,1.68
2023-01-22T04:54:29.617Z,1.71
2023-01-22T04:55:29.905Z,1.71
2023-01-22T04:56:30.288Z,1.71
2023-01-22T04:57:30.448Z,1.69
2023-01-22T04:58:30.759Z,1.71
2023-01-22T04:59:31.018Z,1.71
2023-01-22T05:00:31.281Z,1.71
2023-01-22T05:01:31.684Z,1.71
2023-01-22T05:02:32.052Z,1.68
2023-01-22T05:03:32.228Z,1.72
2023-01-22T05:04:32.585Z,1.65
2023-01-22T05:05:32.866Z,1.65
2023-01-22T05:06:33.204Z,1.68
2023-01-22T05:07:33.511Z,1.69
2023-01-22T05:08:33.843Z,1.68
2023-01-22T05:09:34.029Z,1.68
2023-01-22T05:10:34.353Z,1.72
2023-01-22T05:11:34.696Z,1.72
2023-01-22T05:12:35.010Z,1.71
2023-01-22T05:13:35.349Z,1.68
2023-01-22T05:14:35.659Z,1.68
2023-01-22T05:15:36.003Z,1.69
2023-01-22T05:16:36.333Z,1.71
2023-01-22T05:17:36.632Z,1.73
2023-01-22T05:18:37.181Z,1.75
2023-01-22T05:19:38.168Z,1.71
2023-01-22T05:20:37.442Z,1.71
2023-01-22T05:21:37.717Z,1.72
2023-01-22T05:22:38.065Z,1.73
2023-01-22T05:23:38.361Z,1.73
2023-01-22T05:24:38.660Z,1.78
2023-01-22T05:25:38.945Z,1.75
2023-01-22T05:26:39.289Z,1.73
2023-01-22T05:27:39.678Z,1.71
2023-01-22T05:28:39.879Z,1.73
2023-01-22T05:29:40.160Z,1.72
2023-01-22T05:30:40.642Z,1.72
2023-01-22T05:31:40.836Z,1.71
2023-01-22T05:32:41.103Z,1.72
2023-01-22T05:33:41.426Z,1.72
2023-01-22T05:34:41.787Z,1.71
2023-01-22T05:35:41.979Z,1.62
2023-01-22T05:36:42.302Z,1.68
2023-01-22T05:37:42.586Z,1.68
2023-01-22T05:38:42.886Z,1.62
2023-01-22T05:39:43.236Z,1.62
2023-01-22T05:40:43.548Z,1.64
2023-01-22T05:41:43.853Z,1.62
2023-01-22T05:42:44.210Z,1.64
2023-01-22T05:43:44.488Z,1.65
2023-01-22T05:44:44.861Z,1.62
2023-01-22T05:45:45.044Z,1.65
2023-01-22T05:46:45.391Z,1.62
2023-01-22T05:47:45.797Z,1.62
2023-01-22T05:48:45.990Z,1.64
2023-01-22T05:49:46.273Z,1.69
2023-01-22T05:50:46.685Z,1.64
2023-01-22T05:51:46.932Z,1.61
2023-01-22T05:52:47.171Z,1.62
2023-01-22T05:53:47.478Z,1.58
2023-01-22T05:54:47.833Z,1.60
2023-01-22T05:55:48.115Z,1.62
2023-01-22T05:56:48.510Z,1.62
2023-01-22T05:57:48.918Z,1.65
2023-01-22T05:58:49.109Z,1.68
2023-01-22T05:59:49.386Z,1.65
2023-01-22T06:00:49.708Z,1.65
2023-01-22T06:01:50.012Z,1.68
2023-01-22T06:02:50.379Z,1.69
2023-01-22T06:03:50.554Z,1.78
2023-01-22T06:04:50.827Z,1.75
2023-01-22T06:05:50.957Z,1.72
2023-01-22T06:06:51.316Z,1.78
2023-01-22T06:07:51.627Z,1.76
2023-01-22T06:08:51.949Z,1.72
2023-01-22T06:09:52.278Z,1.75
2023-01-22T06:10:52.620Z,1.73
2023-01-22T06:11:52.888Z,1.75
2023-01-22T06:12:53.255Z,1.75
2023-01-22T06:13:53.532Z,1.76
2023-01-22T06:14:53.877Z,1.76
2023-01-22T06:15:54.253Z,1.82
2023-01-22T06:16:54.467Z,1.78
2023-01-22T06:17:54.698Z,1.75
2023-01-22T06:18:54.987Z,1.72
2023-01-22T06:19:55.304Z,1.72
2023-01-22T06:20:55.817Z,1.76
2023-01-22T06:21:55.960Z,1.73
2023-01-22T06:22:56.247Z,1.75
2023-01-22T06:23:56.558Z,1.72
2023-01-22T06:24:56.925Z,1.71
2023-01-22T06:25:57.162Z,1.69
2023-01-22T06:26:57.452Z,1.69
2023-01-22T06:27:57.770Z,1.68
2023-01-22T06:28:58.070Z,1.72
2023-01-22T06:29:58.827Z,1.65
2023-01-22T06:30:58.695Z,1.65
2023-01-22T06:31:58.898Z,1.72
2023-01-22T06:32:59.187Z,1.71
2023-01-22T06:33:59.467Z,1.73
2023-01-22T06:34:59.848Z,1.76
2023-01-22T06:36:00.149Z,1.72
2023-01-22T06:37:00.401Z,1.75
2023-01-22T06:38:00.822Z,1.71
2023-01-22T06:39:01.003Z,1.69
2023-01-22T06:40:01.202Z,1.72
2023-01-22T06:41:01.444Z,1.75
2023-01-22T06:42:01.715Z,1.69
2023-01-22T06:43:02.005Z,1.62
2023-01-22T06:44:02.221Z,1.69
2023-01-22T06:45:02.495Z,1.73
2023-01-22T06:46:02.805Z,1.75
2023-01-22T06:47:03.148Z,1.78
2023-01-22T06:48:03.456Z,1.75
2023-01-22T06:49:03.653Z,1.76
2023-01-22T06:50:03.903Z,1.75
2023-01-22T06:51:04.261Z,1.80
2023-01-22T06:52:04.410Z,1.76
2023-01-22T06:53:04.806Z,1.79
2023-01-22T06:54:05.159Z,1.78
2023-01-22T06:55:05.415Z,1.78
2023-01-22T06:56:05.639Z,1.78
2023-01-22T06:57:05.948Z,1.79
2023-01-22T06:58:06.135Z,1.80
2023-01-22T06:59:06.390Z,1.78
2023-01-22T07:00:06.640Z,1.79
2023-01-22T07:01:06.916Z,1.80
2023-01-22T07:02:07.163Z,1.79
2023-01-22T07:03:07.432Z,1.79
2023-01-22T07:04:07.672Z,1.79
2023-01-22T07:05:07.955Z,1.80
2023-01-22T07:06:08.168Z,1.76
2023-01-22T07:07:08.453Z,1.79
2023-01-22T07:08:08.681Z,1.80
2023-01-22T07:09:09.009Z,1.80
2023-01-22T07:10:09.221Z,1.78
2023-01-22T07:11:09.484Z,1.82
2023-01-22T07:12:09.756Z,1.76
2023-01-22T07:13:10.014Z,1.79
2023-01-22T07:14:10.280Z,1.85
2023-01-22T07:15:10.558Z,1.80
2023-01-22T07:16:10.849Z,1.83
2023-01-22T07:17:11.112Z,1.79
2023-01-22T07:18:11.298Z,1.79
2023-01-22T07:19:11.660Z,1.79
2023-01-22T07:20:11.905Z,1.78
2023-01-22T07:21:12.189Z,1.73
2023-01-22T07:22:12.374Z,1.75
2023-01-22T07:23:12.651Z,1.73
2023-01-22T07:24:13.058Z,1.75
2023-01-22T07:25:13.199Z,1.76
2023-01-22T07:26:13.509Z,1.75
2023-01-22T07:27:13.923Z,1.76
2023-01-22T07:28:14.005Z,1.75
2023-01-22T07:29:14.269Z,1.78
2023-01-22T07:30:14.525Z,1.76
2023-01-22T07:31:14.945Z,1.75
2023-01-22T07:32:15.993Z,1.79
2023-01-22T07:33:15.373Z,1.82
2023-01-22T07:34:15.587Z,1.80
2023-01-22T07:35:15.874Z,1.80
2023-01-22T07:36:16.077Z,1.82
2023-01-22T07:37:16.454Z,1.82
2023-01-22T07:38:16.760Z,1.82
2023-01-22T07:39:16.991Z,1.79
2023-01-22T07:40:17.636Z,1.85
2023-01-22T07:41:25.829Z,1.83
2023-01-22T07:42:18.898Z,1.82
2023-01-22T07:43:18.082Z,1.80
2023-01-22T07:44:18.332Z,1.82
2023-01-22T07:45:18.632Z,1.82
2023-01-22T07:46:18.876Z,1.87
2023-01-22T07:47:19.122Z,1.90
2023-01-22T07:48:19.390Z,1.87
2023-01-22T07:49:19.707Z,1.94
2023-01-22T07:50:20.160Z,1.89
2023-01-22T07:51:20.273Z,1.87
2023-01-22T07:52:20.505Z,1.83
2023-01-22T07:53:20.758Z,1.89
2023-01-22T07:54:21.060Z,1.83
2023-01-22T07:55:21.340Z,1.82
2023-01-22T07:56:21.504Z,1.82
2023-01-22T07:57:21.793Z,1.89
2023-01-22T07:58:22.067Z,1.85
2023-01-22T07:59:22.316Z,1.87
2023-01-22T08:00:22.568Z,1.85
2023-01-22T08:01:22.840Z,1.85
2023-01-22T08:02:23.211Z,1.85
2023-01-22T08:03:23.423Z,1.89
2023-01-22T08:04:23.732Z,1.89
2023-01-22T08:05:24.061Z,1.91
2023-01-22T08:06:24.279Z,1.87
2023-01-22T08:07:25.443Z,1.90
2023-01-22T08:08:24.810Z,1.85
2023-01-22T08:09:25.165Z,1.85
2023-01-22T08:10:25.385Z,1.87
2023-01-22T08:11:25.662Z,1.91
2023-01-22T08:12:25.937Z,1.91
2023-01-22T08:13:26.289Z,1.87
2023-01-22T08:14:26.451Z,1.87
2023-01-22T08:15:29.678Z,1.91
2023-01-22T08:16:26.964Z,1.91
2023-01-22T08:17:27.261Z,1.94
2023-01-22T08:18:27.502Z,1.94
2023-01-22T08:19:27.780Z,1.93
2023-01-22T08:20:28.039Z,1.98
2023-01-22T08:21:28.351Z,1.98
2023-01-22T08:22:28.545Z,1.98
2023-01-22T08:23:28.828Z,1.99
2023-01-22T08:24:29.103Z,1.99
2023-01-22T08:25:29.370Z,2.02
2023-01-22T08:26:29.655Z,2.02
2023-01-22T08:27:29.934Z,2.08
2023-01-22T08:28:30.119Z,2.06
2023-01-22T08:29:30.414Z,2.09
2023-01-22T08:30:30.682Z,2.06
2023-01-22T08:31:31.031Z,2.10
2023-01-22T08:32:31.275Z,2.19
2023-01-22T08:33:31.522Z,2.20
2023-01-22T08:34:31.708Z,2.28
2023-01-22T08:35:31.974Z,2.26
2023-01-22T08:36:32.210Z,2.33
2023-01-22T08:37:32.506Z,2.30
2023-01-22T08:38:32.699Z,2.30
2023-01-22T08:39:33.006Z,2.31
2023-01-22T08:40:33.269Z,2.35
2023-01-22T08:41:33.554Z,2.44
2023-01-22T08:42:33.821Z,2.37
2023-01-22T08:43:34.081Z,2.41
2023-01-22T08:44:34.410Z,2.33
2023-01-22T08:45:34.684Z,2.37
2023-01-22T08:46:34.960Z,2.41
2023-01-22T08:47:35.240Z,2.41
2023-01-22T08:48:35.602Z,2.52
2023-01-22T08:49:35.801Z,2.52
2023-01-22T08:50:36.097Z,2.64
2023-01-22T08:51:36.339Z,2.64
2023-01-22T08:52:36.597Z,2.69
2023-01-22T08:53:36.938Z,2.67
2023-01-22T08:54:37.185Z,2.70
2023-01-22T08:55:37.443Z,2.74
2023-01-22T08:56:37.783Z,2.77
2023-01-22T08:57:38.062Z,2.84
2023-01-22T08:58:38.296Z,2.77
2023-01-22T08:59:38.666Z,2.74
2023-01-22T09:00:38.885Z,2.81
2023-01-22T09:01:39.159Z,2.88
2023-01-22T09:02:39.433Z,2.92
2023-01-22T09:03:39.692Z,2.82
2023-01-22T09:04:40.534Z,2.81
2023-01-22T09:05:40.332Z,2.82
2023-01-22T09:06:40.606Z,2.87
2023-01-22T09:07:40.858Z,2.91
2023-01-22T09:08:41.127Z,2.88
2023-01-22T09:09:41.428Z,2.84
2023-01-22T09:10:41.660Z,2.84
2023-01-22T09:11:42.054Z,2.81
2023-01-22T09:12:42.216Z,2.79
2023-01-22T09:13:42.458Z,2.85
2023-01-22T09:14:42.706Z,2.84
2023-01-22T09:15:42.992Z,2.84
2023-01-22T09:16:43.328Z,2.82
2023-01-22T09:17:43.528Z,2.82
2023-01-22T09:18:43.797Z,2.79
2023-01-22T09:19:44.032Z,2.76
2023-01-22T09:20:44.275Z,2.79
2023-01-22T09:21:44.717Z,2.88
2023-01-22T09:22:44.929Z,2.94
2023-01-22T09:23:45.239Z,2.95
2023-01-22T09:24:45.446Z,2.95
2023-01-22T09:25:45.717Z,2.94
2023-01-22T09:26:45.959Z,3.00
2023-01-22T09:27:46.343Z,2.97
2023-01-22T09:28:46.582Z,3.02
2023-01-22T09:29:46.837Z,3.03
2023-01-22T09:30:47.115Z,3.03
2023-01-22T09:31:47.447Z,3.03
2023-01-22T09:32:47.682Z,2.98
2023-01-22T09:33:47.984Z,2.97
2023-01-22T09:34:48.185Z,2.98
2023-01-22T09:35:48.520Z,2.95
2023-01-22T09:36:48.718Z,2.92
2023-01-22T09:37:48.995Z,2.89
2023-01-22T09:38:49.258Z,2.88
2023-01-22T09:39:49.519Z,2.92
2023-01-22T09:40:49.769Z,2.95
2023-01-22T09:41:50.093Z,2.97
2023-01-22T09:42:50.353Z,3.00
2023-01-22T09:43:50.609Z,3.03
2023-01-22T09:44:50.856Z,3.10
2023-01-22T09:45:52.823Z,3.12
2023-01-22T09:46:51.374Z,3.09
2023-01-22T09:47:51.625Z,3.12
2023-01-22T09:48:51.885Z,3.05
2023-01-22T09:49:52.104Z,2.98
2023-01-22T09:50:52.379Z,2.92
2023-01-22T09:51:52.894Z,2.92
2023-01-22T09:52:52.926Z,2.91
2023-01-22T09:53:54.078Z,2.95
2023-01-22T09:54:53.464Z,2.95
2023-01-22T09:55:53.755Z,2.89
2023-01-22T09:56:54.025Z,2.97
2023-01-22T09:57:54.295Z,3.02
2023-01-22T09:58:54.555Z,3.00
2023-01-22T09:59:54.825Z,2.92
2023-01-22T10:00:55.084Z,2.95
2023-01-22T10:01:55.397Z,3.00
2023-01-22T10:02:55.619Z,3.03
2023-01-22T10:03:55.893Z,2.98
2023-01-22T10:04:56.124Z,3.03
2023-01-22T10:05:56.370Z,3.05
2023-01-22T10:06:56.721Z,2.98
2023-01-22T10:07:56.940Z,3.02
2023-01-22T10:08:57.147Z,2.92
2023-01-22T10:09:57.449Z,2.97
2023-01-22T10:10:57.676Z,2.94
2023-01-22T10:11:57.960Z,3.00
2023-01-22T10:12:58.257Z,3.05
2023-01-22T10:13:58.589Z,3.05
2023-01-22T10:14:58.825Z,3.05
2023-01-22T10:15:59.061Z,3.12
2023-01-22T10:16:59.363Z,3.13
2023-01-22T10:17:59.583Z,3.12
2023-01-22T10:18:59.928Z,3.23
2023-01-22T10:20:00.139Z,3.20
2023-01-22T10:21:00.350Z,3.23
2023-01-22T10:22:00.774Z,3.24
2023-01-22T10:23:00.980Z,3.23
2023-01-22T10:24:01.289Z,3.25
2023-01-22T10:25:01.539Z,3.25
2023-01-22T10:26:01.778Z,3.21
2023-01-22T10:27:02.039Z,3.23
2023-01-22T10:28:02.743Z,3.31
2023-01-22T10:29:02.552Z,3.40
2023-01-22T10:30:02.921Z,3.42
2023-01-22T10:31:03.179Z,3.42
2023-01-22T10:32:03.339Z,3.46
2023-01-22T10:33:03.664Z,3.52
2023-01-22T10:34:03.897Z,3.53
2023-01-22T10:35:04.210Z,3.44
2023-01-22T10:36:04.591Z,3.39
2023-01-22T10:37:04.671Z,3.39
2023-01-22T10:38:04.932Z,3.39
2023-01-22T10:39:05.280Z,3.36
2023-01-22T10:40:05.560Z,3.30
2023-01-22T10:41:05.664Z,3.33
2023-01-22T10:42:06.078Z,3.34
2023-01-22T10:43:06.288Z,3.34
2023-01-22T10:44:06.642Z,3.31
2023-01-22T10:45:06.999Z,3.27
2023-01-22T10:46:07.264Z,3.30
2023-01-22T10:47:07.529Z,3.25
2023-01-22T10:48:07.803Z,3.28
2023-01-22T10:49:08.080Z,3.40
2023-01-22T10:50:08.357Z,3.43
2023-01-22T10:51:09.107Z,3.53
2023-01-22T10:52:08.968Z,3.49
2023-01-22T10:53:09.238Z,3.50
2023-01-22T10:54:09.571Z,3.53
2023-01-22T10:55:09.758Z,3.49
2023-01-22T10:56:12.411Z,3.49
2023-01-22T10:57:10.436Z,3.39
2023-01-22T10:58:10.679Z,3.28
2023-01-22T10:59:10.969Z,3.24
2023-01-22T11:00:11.221Z,3.23
2023-01-22T11:01:11.855Z,3.20
2023-01-22T11:02:11.933Z,3.20
2023-01-22T11:03:11.953Z,3.16
2023-01-22T11:04:12.235Z,3.16
2023-01-22T11:05:12.471Z,3.24
2023-01-22T11:06:12.744Z,3.28
2023-01-22T11:07:13.283Z,3.40
2023-01-22T11:08:13.272Z,3.28
2023-01-22T11:09:14.037Z,3.30
2023-01-22T11:10:13.867Z,3.30
2023-01-22T11:11:14.120Z,3.34
2023-01-22T11:12:14.392Z,3.40
2023-01-22T11:13:14.649Z,3.40
2023-01-22T11:14:14.961Z,3.43
2023-01-22T11:15:15.177Z,3.47
2023-01-22T11:16:15.562Z,3.49
2023-01-22T11:17:15.801Z,3.49
2023-01-22T11:18:16.074Z,3.47
2023-01-22T11:19:18.126Z,3.49
2023-01-22T11:20:18.071Z,3.52
2023-01-22T11:21:16.977Z,3.52
2023-01-22T11:22:17.168Z,3.57
2023-01-22T11:23:17.365Z,3.54
2023-01-22T11:24:17.744Z,3.62
2023-01-22T11:25:18.048Z,3.54
2023-01-22T11:26:18.443Z,3.57
2023-01-22T11:27:18.517Z,3.61
2023-01-22T11:28:18.750Z,3.64
2023-01-22T11:29:19.031Z,3.67
2023-01-22T11:30:21.306Z,3.72
2023-01-22T11:31:19.734Z,3.76
2023-01-22T11:32:19.836Z,3.78
2023-01-22T11:33:24.011Z,3.78
2023-01-22T11:34:20.402Z,3.78
2023-01-22T11:35:20.680Z,3.85
2023-01-22T11:36:20.998Z,3.86
2023-01-22T11:37:21.259Z,3.86
2023-01-22T11:38:21.548Z,3.82
2023-01-22T11:39:21.795Z,3.79
2023-01-22T11:40:22.346Z,3.80
2023-01-22T11:41:22.425Z,3.76
2023-01-22T11:42:22.621Z,3.71
2023-01-22T11:43:22.922Z,3.71
2023-01-22T11:44:23.209Z,3.75
2023-01-22T11:45:23.444Z,3.72
2023-01-22T11:46:23.717Z,3.68
2023-01-22T11:47:23.989Z,3.65
2023-01-22T11:48:24.289Z,3.71
2023-01-22T11:49:24.551Z,3.71
2023-01-22T11:50:24.819Z,3.75
2023-01-22T11:51:25.196Z,3.83
2023-01-22T11:52:25.515Z,3.85
2023-01-22T11:53:25.756Z,3.83
2023-01-22T11:54:26.006Z,3.79
2023-01-22T11:55:26.259Z,3.85
2023-01-22T11:56:26.489Z,3.85
2023-01-22T11:57:26.798Z,3.85
2023-01-22T11:58:27.168Z,3.89
2023-01-22T11:59:27.274Z,3.92
2023-01-22T12:00:27.560Z,3.89
2023-01-22T12:01:27.799Z,3.89
2023-01-22T12:02:28.116Z,3.80
2023-01-22T12:03:28.473Z,3.79
2023-01-22T12:04:28.565Z,3.78
2023-01-22T12:05:30.744Z,3.78
2023-01-22T12:06:29.125Z,3.79
2023-01-22T12:07:29.346Z,3.79
2023-01-22T12:08:29.627Z,3.76
2023-01-22T12:09:29.887Z,3.75
2023-01-22T12:10:30.108Z,3.71
2023-01-22T12:11:30.430Z,3.71
2023-01-22T12:12:30.667Z,3.76
2023-01-22T12:13:30.968Z,3.67
2023-01-22T12:14:31.514Z,3.70
2023-01-22T12:15:31.512Z,3.76
2023-01-22T12:16:31.790Z,3.71
2023-01-22T12:17:32.024Z,3.70
2023-01-22T12:18:32.311Z,3.64
2023-01-22T12:19:32.617Z,3.60
2023-01-22T12:20:32.838Z,3.65
2023-01-22T12:21:33.097Z,3.65
2023-01-22T12:22:33.363Z,3.64
2023-01-22T12:23:33.856Z,3.64
2023-01-22T12:25:36.734Z,3.75
2023-01-22T12:26:37.000Z,3.72
2023-01-22T12:27:37.257Z,3.71
2023-01-22T12:28:37.485Z,3.75
2023-01-22T12:29:38.119Z,3.78
2023-01-22T12:30:38.202Z,3.78
2023-01-22T12:31:38.500Z,3.78
2023-01-22T12:32:38.729Z,3.78
2023-01-22T12:33:39.007Z,3.71
2023-01-22T12:34:39.230Z,3.72
2023-01-22T12:35:39.620Z,3.65
2023-01-22T12:36:39.890Z,3.62
2023-01-22T12:37:40.095Z,3.58
2023-01-22T12:38:40.336Z,3.57
2023-01-22T12:39:40.625Z,3.54
2023-01-22T12:40:40.933Z,3.60
2023-01-22T12:41:41.247Z,3.49
2023-01-22T12:42:41.433Z,3.53
2023-01-22T12:43:41.670Z,3.52
2023-01-22T12:44:41.955Z,3.54
2023-01-22T12:45:42.229Z,3.57
2023-01-22T12:46:42.536Z,3.60
2023-01-22T12:47:42.753Z,3.60
2023-01-22T12:48:43.007Z,3.60
2023-01-22T12:49:43.255Z,3.67
2023-01-22T12:50:43.563Z,3.62
2023-01-22T12:51:43.815Z,3.62
2023-01-22T12:52:44.071Z,3.61
2023-01-22T12:53:44.348Z,3.62
2023-01-22T12:54:44.607Z,3.64
2023-01-22T12:55:44.891Z,3.58
2023-01-22T12:56:45.136Z,3.52
2023-01-22T12:57:45.442Z,3.58
2023-01-22T12:58:45.647Z,3.58
2023-01-22T12:59:45.888Z,3.52
2023-01-22T13:00:46.236Z,3.49
2023-01-22T13:01:46.443Z,3.50
2023-01-22T13:02:46.714Z,3.52
2023-01-22T13:03:46.950Z,3.50
2023-01-22T13:04:47.188Z,3.50
2023-01-22T13:05:47.550Z,3.46
2023-01-22T13:06:47.840Z,3.46
2023-01-22T13:07:48.073Z,3.50
2023-01-22T13:08:48.343Z,3.42
2023-01-22T13:09:48.582Z,3.39
2023-01-22T13:10:48.976Z,3.34
2023-01-22T13:11:49.256Z,3.33
2023-01-22T13:12:49.541Z,3.33
2023-01-22T13:13:49.791Z,3.34
2023-01-22T13:14:49.997Z,3.34
2023-01-22T13:15:50.398Z,3.31
2023-01-22T13:16:50.635Z,3.28
2023-01-22T13:18:05.943Z,3.30
2023-01-22T13:18:52.177Z,3.30
2023-01-22T13:19:51.539Z,3.33
2023-01-22T13:20:51.691Z,3.34
2023-01-22T13:21:52.071Z,3.39
2023-01-22T13:22:52.350Z,3.40